This demonstration page uses our WeatherBlox Daily Observations layout. Learn more.

38.89511, -77.03637

Hourly Observations for June 10, 2015

Temp ( °F °C ) Dew Point ( °F °C ) Humidity (%) Winds ( mph kmh ) Pressure ( in mb ) Visibility ( mi km ) Precip ( " mm )
12:52 am 00:52 Mostly Cloudy 77 25 56 13.3 48 48 NW 12 19 29.84 1011 10 16.0934 0 0
1:52 am 01:52 Partly Cloudy 74 23.3 56 13.3 54 54 NW 6 9 29.84 1011 10 16.0934 0 0
2:52 am 02:52 Partly Cloudy 73 22.8 58 14.4 59 59 NNE 3 6 29.85 1011 10 16.0934 0 0
3:52 am 03:52 Partly Cloudy 70 21.1 57 13.9 64 64 N 6 9 29.85 1011 10 16.0934 0 0
4:52 am 04:52 Partly Cloudy 68 20 58 14.4 70 70 N 7 11 29.87 1012 10 16.0934 0 0
5:52 am 05:52 Mostly Cloudy 70 21.1 57 13.9 64 64 Calm 29.89 1012 10 16.0934 0 0
6:52 am 06:52 Mostly Cloudy 71 21.7 57 13.9 61 61 Calm 29.91 1013 10 16.0934 0 0
7:52 am 07:52 Mostly Cloudy 74 23.3 60 15.6 62 62 Calm 29.93 1013 10 16.0934 0 0
8:52 am 08:52 Sunny 75 23.9 60 15.6 60 60 SE 3 6 29.94 1014 10 16.0934 0 0
9:52 am 09:52 Sunny 76 24.4 63 17.2 64 64 S 7 11 29.95 1014 10 16.0934 0 0
10:52 am 10:52 Sunny 79 26.1 63 17.2 58 58 S 6 9 29.95 1014 10 16.0934 0 0
11:52 am 11:52 Mostly Sunny 80 26.7 62 16.7 54 54 S 7 11 29.94 1014 10 16.0934 0 0
12:52 pm 12:52 Mostly Sunny 82 27.8 62 16.7 51 51 S 9 15 29.93 1014 10 16.0934 0 0
1:52 pm 13:52 Mostly Sunny 83 28.3 63 17.2 51 51 S 13 20 29.91 1013 10 16.0934 0 0
2:52 pm 14:52 Partly Cloudy 84 28.9 61 16.1 46 46 S 14 22 29.9 1013 10 16.0934 0 0
3:52 pm 15:52 Partly Cloudy 84 28.9 63 17.2 49 49 S 13 20 29.9 1013 10 16.0934 0 0
4:52 pm 16:52 Mostly Sunny 84 28.9 60 15.6 44 44 SW 9 15 29.9 1013 9 14.48406 0 0
5:52 pm 17:52 Mostly Sunny 83 28.3 61 16.1 48 48 SSW 10 17 29.9 1012 9 14.48406 0 0
6:52 pm 18:52 Mostly Sunny 82 27.8 62 16.7 51 51 S 12 19 29.89 1012 9 14.48406 0 0
7:52 pm 19:52 Mostly Sunny 80 26.7 66 18.9 62 62 S 8 13 29.9 1012 8 12.87472 0 0
8:52 pm 20:52 Mostly Clear 78 25.6 64 17.8 62 62 S 9 15 29.88 1012 9 14.48406 0 0
9:52 pm 21:52 Clear 76 24.4 64 17.8 67 67 S 9 15 29.91 1013 10 16.0934 0 0
10:52 pm 22:52 Clear 75 23.9 65 18.3 71 71 S 7 11 29.92 1013 10 16.0934 0 0
11:52 pm 23:52 Clear 74 23.3 65 18.3 74 74 S 6 9 29.91 1013 10 16.0934 0 0

Powered by AerisWeather